createdAt,value
2019-04-28T00:01:58.427Z,82.38
2019-04-28T00:04:28.908Z,83.03
2019-04-28T00:06:59.331Z,83.01
2019-04-28T00:09:31.345Z,83.27
2019-04-28T00:12:02.588Z,83.31
2019-04-28T00:14:33.060Z,82.79
2019-04-28T00:17:04.368Z,83.35
2019-04-28T00:19:34.872Z,83.93
2019-04-28T00:22:17.888Z,83.87
2019-04-28T00:24:53.865Z,83.15
2019-04-28T00:27:24.718Z,82.97
2019-04-28T00:29:55.455Z,82.35
2019-04-28T00:32:26.296Z,83.35
2019-04-28T00:34:56.728Z,83.25
2019-04-28T00:37:31.912Z,82.85
2019-04-28T00:40:02.902Z,83.05
2019-04-28T00:42:34.051Z,83.45
2019-04-28T00:45:05.212Z,83.28
2019-04-28T00:47:36.163Z,83.08
2019-04-28T00:50:07.637Z,83.10
2019-04-28T00:52:38.433Z,83.09
2019-04-28T00:55:11.050Z,83.25
2019-04-28T00:57:41.950Z,83.18
2019-04-28T01:00:14.420Z,82.82
2019-04-28T01:02:45.591Z,83.25
2019-04-28T01:05:16.219Z,82.53
2019-04-28T01:07:47.047Z,82.76
2019-04-28T01:10:21.050Z,82.82
2019-04-28T01:12:52.347Z,83.48
2019-04-28T01:15:39.655Z,82.56
2019-04-28T01:18:25.811Z,83.12
2019-04-28T01:20:56.758Z,82.81
2019-04-28T01:23:27.206Z,82.79
2019-04-28T01:25:59.955Z,83.01
2019-04-28T01:28:31.256Z,82.88
2019-04-28T01:31:25.353Z,82.99
2019-04-28T01:34:19.852Z,83.36
2019-04-28T01:36:51.731Z,83.16
2019-04-28T01:39:22.387Z,83.49
2019-04-28T01:44:15.188Z,83.60
2019-04-28T01:46:46.689Z,83.32
2019-04-28T01:49:17.390Z,82.91
2019-04-28T01:52:00.924Z,83.20
2019-04-28T01:54:31.646Z,82.89
2019-04-28T01:57:02.180Z,83.04
2019-04-28T01:59:33.082Z,83.84
2019-04-28T02:02:03.995Z,83.90
2019-04-28T02:04:34.441Z,83.85
2019-04-28T02:07:05.278Z,84.13
2019-04-28T02:09:36.015Z,84.45
2019-04-28T02:12:06.452Z,84.17
2019-04-28T02:14:36.932Z,84.31
2019-04-28T02:17:07.392Z,83.81
2019-04-28T02:19:37.830Z,83.97
2019-04-28T02:22:32.665Z,84.55
2019-04-28T02:25:03.104Z,84.58
2019-04-28T02:27:33.889Z,85.60
2019-04-28T02:30:06.210Z,85.25
2019-04-28T02:32:36.644Z,85.12
2019-04-28T02:35:10.425Z,84.64
2019-04-28T02:37:40.555Z,84.87
2019-04-28T02:40:11.523Z,84.90
2019-04-28T02:42:41.946Z,85.30
2019-04-28T02:45:14.304Z,85.40
2019-04-28T02:47:44.733Z,84.81
2019-04-28T02:50:25.107Z,85.34
2019-04-28T02:53:06.839Z,85.25
2019-04-28T02:55:37.330Z,85.51
2019-04-28T02:58:07.767Z,85.76
2019-04-28T03:00:38.205Z,86.17
2019-04-28T03:03:11.013Z,87.05
2019-04-28T03:05:41.415Z,85.94
2019-04-28T03:08:12.096Z,86.54
2019-04-28T03:10:42.577Z,86.22
2019-04-28T03:13:13.532Z,85.84
2019-04-28T03:15:44.577Z,85.90
2019-04-28T03:18:15.145Z,85.97
2019-04-28T03:20:45.576Z,85.16
2019-04-28T03:23:17.049Z,85.09
2019-04-28T03:26:11.186Z,85.64
2019-04-28T03:28:51.486Z,86.17
2019-04-28T03:32:16.496Z,85.51
2019-04-28T03:34:15.936Z,85.76
2019-04-28T03:36:46.378Z,85.12
2019-04-28T03:39:16.891Z,85.52
2019-04-28T03:41:47.295Z,86.47
2019-04-28T03:44:17.719Z,86.41
2019-04-28T03:46:52.606Z,85.93
2019-04-28T03:49:33.306Z,86.03
2019-04-28T03:52:06.835Z,86.13
2019-04-28T03:54:40.660Z,85.80
2019-04-28T03:57:11.322Z,85.57
2019-04-28T03:59:43.815Z,86.40
2019-04-28T04:02:14.717Z,85.87
2019-04-28T04:04:45.597Z,85.62
2019-04-28T04:07:16.752Z,85.72
2019-04-28T04:10:05.355Z,85.86
2019-04-28T04:13:00.902Z,85.69
2019-04-28T04:15:53.332Z,85.57
2019-04-28T04:18:26.289Z,85.61
2019-04-28T04:20:56.758Z,85.77
2019-04-28T04:23:30.862Z,85.33
2019-04-28T04:26:01.832Z,85.76
2019-04-28T04:28:33.020Z,85.91
2019-04-28T04:31:03.566Z,85.50
2019-04-28T04:33:34.460Z,85.27
2019-04-28T04:36:04.889Z,85.09
2019-04-28T04:38:35.318Z,85.21
2019-04-28T04:41:06.199Z,84.77
2019-04-28T04:43:36.643Z,85.66
2019-04-28T04:46:22.739Z,85.81
2019-04-28T04:48:53.347Z,85.87
2019-04-28T04:51:23.788Z,85.64
2019-04-28T04:53:54.269Z,85.97
2019-04-28T04:56:24.703Z,85.82
2019-04-28T04:58:55.485Z,85.75
2019-04-28T05:01:43.769Z,85.71
2019-04-28T05:04:36.245Z,86.04
2019-04-28T05:07:07.266Z,85.34
2019-04-28T05:09:39.496Z,85.86
2019-04-28T05:12:10.373Z,85.35
2019-04-28T05:14:41.217Z,85.05
2019-04-28T05:17:11.950Z,85.03
2019-04-28T05:19:42.686Z,84.92
2019-04-28T05:22:13.777Z,85.14
2019-04-28T05:25:00.097Z,84.62
2019-04-28T05:27:32.504Z,85.21
2019-04-28T05:30:05.157Z,84.67
2019-04-28T05:32:44.649Z,84.67
2019-04-28T05:35:07.303Z,85.16
2019-04-28T05:37:37.731Z,84.81
2019-04-28T05:40:10.514Z,84.21
2019-04-28T05:43:00.847Z,84.24
2019-04-28T05:45:32.319Z,84.41
2019-04-28T05:48:02.891Z,84.37
2019-04-28T05:50:44.589Z,84.23
2019-04-28T05:53:21.773Z,84.54
2019-04-28T05:56:13.085Z,84.22
2019-04-28T05:59:05.214Z,83.94
2019-04-28T06:01:43.513Z,83.55
2019-04-28T06:04:14.299Z,82.82
2019-04-28T06:06:47.183Z,82.89
2019-04-28T06:09:24.586Z,82.87
2019-04-28T06:11:55.286Z,81.80
2019-04-28T06:14:25.716Z,81.31
2019-04-28T06:16:56.203Z,82.33
2019-04-28T06:19:26.634Z,81.92
2019-04-28T06:21:57.062Z,82.31
2019-04-28T06:24:27.563Z,82.53
2019-04-28T06:26:57.994Z,81.79
2019-04-28T06:29:28.729Z,81.26
2019-04-28T06:31:59.575Z,81.70
2019-04-28T06:34:30.021Z,82.64
2019-04-28T06:37:00.449Z,81.53
2019-04-28T06:39:30.923Z,81.97
2019-04-28T06:42:01.644Z,81.45
2019-04-28T06:44:32.171Z,80.69
2019-04-28T06:47:03.070Z,80.51
2019-04-28T06:49:33.941Z,80.62
2019-04-28T06:52:04.584Z,80.75
2019-04-28T06:54:35.336Z,81.01
2019-04-28T06:57:05.770Z,80.25
2019-04-28T06:59:36.544Z,80.23
2019-04-28T07:02:07.012Z,80.36
2019-04-28T07:04:38.121Z,79.51
2019-04-28T07:07:08.552Z,79.22
2019-04-28T07:09:39.387Z,80.48
2019-04-28T07:12:09.820Z,80.58
2019-04-28T07:14:40.256Z,79.85
2019-04-28T07:17:10.742Z,79.23
2019-04-28T07:19:42.818Z,79.87
2019-04-28T07:22:21.669Z,80.01
2019-04-28T07:24:52.134Z,80.36
2019-04-28T07:27:22.667Z,79.98
2019-04-28T07:29:53.158Z,77.92
2019-04-28T07:32:23.597Z,77.56
2019-04-28T07:34:54.329Z,78.29
2019-04-28T07:37:25.177Z,78.97
2019-04-28T07:39:56.858Z,77.03
2019-04-28T07:42:27.820Z,74.94
2019-04-28T07:44:58.417Z,75.75
2019-04-28T07:47:28.902Z,74.82
2019-04-28T07:50:00.104Z,75.42
2019-04-28T07:52:39.736Z,76.31
2019-04-28T07:55:10.291Z,75.10
2019-04-28T07:57:40.734Z,74.62
2019-04-28T08:00:13.513Z,75.23
2019-04-28T08:02:43.967Z,76.00
2019-04-28T08:05:14.422Z,74.18
2019-04-28T08:07:44.910Z,73.26
2019-04-28T08:10:15.798Z,73.93
2019-04-28T08:12:49.119Z,73.31
2019-04-28T08:15:20.150Z,72.71
2019-04-28T08:17:50.616Z,72.34
2019-04-28T08:20:21.515Z,72.38
2019-04-28T08:22:52.764Z,72.73
2019-04-28T08:25:23.246Z,73.24
2019-04-28T08:27:53.714Z,71.98
2019-04-28T08:30:24.442Z,71.10
2019-04-28T08:33:00.388Z,71.45
2019-04-28T08:35:31.215Z,71.54
2019-04-28T08:38:01.648Z,71.15
2019-04-28T08:40:32.434Z,72.78
2019-04-28T08:43:03.774Z,73.46
2019-04-28T08:45:34.219Z,73.88
2019-04-28T08:48:04.653Z,74.10
2019-04-28T08:50:35.161Z,75.01
2019-04-28T08:53:05.914Z,74.61
2019-04-28T08:55:36.323Z,74.17
2019-04-28T08:58:06.814Z,74.16
2019-04-28T09:00:37.266Z,73.06
2019-04-28T09:03:08.026Z,70.86
2019-04-28T09:05:38.522Z,71.25
2019-04-28T09:08:09.020Z,68.01
2019-04-28T09:10:39.834Z,66.18
2019-04-28T09:13:10.363Z,66.19
2019-04-28T09:15:40.814Z,64.70
2019-04-28T09:18:11.248Z,63.08
2019-04-28T09:20:42.681Z,64.62
2019-04-28T09:23:13.858Z,64.36
2019-04-28T09:25:44.696Z,64.88
2019-04-28T09:28:15.230Z,64.31
2019-04-28T09:30:45.668Z,64.13
2019-04-28T09:33:16.127Z,64.70
2019-04-28T09:35:46.670Z,64.14
2019-04-28T09:38:17.423Z,64.62
2019-04-28T09:40:47.878Z,65.33
2019-04-28T09:43:26.018Z,64.35
2019-04-28T09:46:01.786Z,64.29
2019-04-28T09:48:32.291Z,64.15
2019-04-28T09:51:03.081Z,63.86
2019-04-28T09:53:33.922Z,64.83
2019-04-28T09:56:04.454Z,66.91
2019-04-28T09:58:35.538Z,68.62
2019-04-28T10:01:06.674Z,67.38
2019-04-28T10:03:37.309Z,67.71
2019-04-28T10:06:08.139Z,68.46
2019-04-28T10:08:38.638Z,68.99
2019-04-28T10:11:10.098Z,69.07
2019-04-28T10:13:40.947Z,69.74
2019-04-28T10:16:11.406Z,69.00
2019-04-28T10:18:42.804Z,69.18
2019-04-28T10:21:13.862Z,68.73
2019-04-28T10:23:44.327Z,68.63
2019-04-28T10:26:14.820Z,68.53
2019-04-28T10:28:45.973Z,68.25
2019-04-28T10:31:16.499Z,66.79
2019-04-28T10:33:52.478Z,67.48
2019-04-28T10:36:23.116Z,67.05
2019-04-28T10:38:55.206Z,65.00
2019-04-28T10:41:33.541Z,64.41
2019-04-28T10:44:04.109Z,65.12
2019-04-28T10:46:34.946Z,64.66
2019-04-28T10:49:05.446Z,63.82
2019-04-28T10:51:35.881Z,63.93
2019-04-28T10:54:06.337Z,61.60
2019-04-28T10:56:36.821Z,62.17
2019-04-28T10:59:07.259Z,62.95
2019-04-28T11:01:38.033Z,61.22
2019-04-28T11:04:11.489Z,61.31
2019-04-28T11:06:41.938Z,61.97
2019-04-28T11:09:37.664Z,61.77
2019-04-28T11:12:10.843Z,63.83
2019-04-28T11:14:41.397Z,65.32
2019-04-28T11:17:14.411Z,66.44
2019-04-28T11:19:44.849Z,65.29
2019-04-28T11:22:15.671Z,66.13
2019-04-28T11:24:46.541Z,66.93
2019-04-28T11:27:17.647Z,65.98
2019-04-28T11:29:48.138Z,66.25
2019-04-28T11:32:18.664Z,64.93
2019-04-28T11:35:01.829Z,65.24
2019-04-28T11:37:32.304Z,64.29
2019-04-28T11:40:03.089Z,63.53
2019-04-28T11:42:33.858Z,61.53
2019-04-28T11:45:05.212Z,61.05
2019-04-28T11:47:36.053Z,59.87
2019-04-28T11:50:07.017Z,60.68
2019-04-28T11:52:37.503Z,59.52
2019-04-28T11:55:08.192Z,59.52
2019-04-28T11:57:39.616Z,58.36
2019-04-28T12:00:22.245Z,56.66
2019-04-28T12:02:53.021Z,57.16
2019-04-28T12:05:34.253Z,56.69
2019-04-28T12:07:58.286Z,55.01
2019-04-28T12:10:33.675Z,56.14
2019-04-28T12:13:10.487Z,55.07
2019-04-28T12:15:59.974Z,54.48
2019-04-28T12:19:05.096Z,53.47
2019-04-28T12:21:35.922Z,52.34
2019-04-28T12:24:06.432Z,53.52
2019-04-28T12:26:37.337Z,53.47
2019-04-28T12:29:08.205Z,53.33
2019-04-28T12:31:38.652Z,53.55
2019-04-28T12:34:10.121Z,53.66
2019-04-28T12:36:40.565Z,52.64
2019-04-28T12:39:11.028Z,52.11
2019-04-28T12:41:41.926Z,51.33
2019-04-28T12:44:12.740Z,52.88
2019-04-28T12:46:43.915Z,50.75
2019-04-28T12:49:28.691Z,51.19
2019-04-28T12:51:59.150Z,51.45
2019-04-28T12:54:31.878Z,50.42
2019-04-28T12:57:02.717Z,48.51
2019-04-28T12:59:39.776Z,49.14
2019-04-28T13:02:17.605Z,49.77
2019-04-28T13:04:59.776Z,49.96
2019-04-28T13:07:30.277Z,50.80
2019-04-28T13:10:00.709Z,52.11
2019-04-28T13:12:31.150Z,49.56
2019-04-28T13:15:02.062Z,51.91
2019-04-28T13:17:32.540Z,49.61
2019-04-28T13:20:03.257Z,49.77
2019-04-28T13:22:33.748Z,49.95
2019-04-28T13:25:04.614Z,49.50
2019-04-28T13:27:35.137Z,49.19
2019-04-28T13:30:06.650Z,51.17
2019-04-28T13:32:37.129Z,51.20
2019-04-28T13:35:07.692Z,49.56
2019-04-28T13:37:38.555Z,51.48
2019-04-28T13:40:16.427Z,50.22
2019-04-28T13:42:46.927Z,49.64
2019-04-28T13:45:20.509Z,48.77
2019-04-28T13:47:50.957Z,48.83
2019-04-28T13:50:41.495Z,50.57
2019-04-28T13:53:12.577Z,50.41
2019-04-28T13:55:59.994Z,50.46
2019-04-28T13:58:32.346Z,48.87
2019-04-28T14:01:25.001Z,53.60
2019-04-28T14:04:13.685Z,53.12
2019-04-28T14:06:47.781Z,52.94
2019-04-28T14:09:18.257Z,51.68
2019-04-28T14:11:48.696Z,53.97
2019-04-28T14:14:19.281Z,52.89
2019-04-28T14:16:50.225Z,53.58
2019-04-28T14:19:20.643Z,52.11
2019-04-28T14:21:51.501Z,52.77
2019-04-28T14:24:21.981Z,53.12
2019-04-28T14:26:53.337Z,53.57
2019-04-28T14:29:24.179Z,54.41
2019-04-28T14:31:55.845Z,55.08
2019-04-28T14:34:26.335Z,57.04
2019-04-28T14:36:56.879Z,59.21
2019-04-28T14:39:27.343Z,60.32
2019-04-28T14:41:58.190Z,61.37
2019-04-28T14:44:28.690Z,62.11
2019-04-28T14:46:59.174Z,62.83
2019-04-28T14:49:29.586Z,63.34
2019-04-28T14:52:00.810Z,64.17
2019-04-28T14:54:31.341Z,65.54
2019-04-28T14:57:01.851Z,65.87
2019-04-28T14:59:32.680Z,65.77
2019-04-28T15:02:15.697Z,65.32
2019-04-28T15:05:10.484Z,63.14
2019-04-28T15:07:59.965Z,62.07
2019-04-28T15:10:37.066Z,63.12
2019-04-28T15:13:07.888Z,63.12
2019-04-28T15:15:40.700Z,62.85
2019-04-28T15:18:11.798Z,61.32
2019-04-28T15:20:42.666Z,59.79
2019-04-28T15:23:13.105Z,62.25
2019-04-28T15:25:43.600Z,60.61
2019-04-28T15:28:15.375Z,59.79
2019-04-28T15:30:46.252Z,59.67
2019-04-28T15:33:17.154Z,59.71
2019-04-28T15:35:47.606Z,59.77
2019-04-28T15:38:18.426Z,58.35
2019-04-28T15:40:48.922Z,57.91
2019-04-28T15:43:19.774Z,56.29
2019-04-28T15:45:50.238Z,54.77
2019-04-28T15:48:21.209Z,56.53
2019-04-28T15:50:54.259Z,57.01
2019-04-28T15:53:24.782Z,54.76
2019-04-28T15:56:17.288Z,56.92
2019-04-28T15:58:48.101Z,57.35
2019-04-28T16:01:19.509Z,56.93
2019-04-28T16:03:50.656Z,56.58
2019-04-28T16:06:21.099Z,56.15
2019-04-28T16:08:51.534Z,55.36
2019-04-28T16:11:22.345Z,56.12
2019-04-28T16:13:52.787Z,56.40
2019-04-28T16:16:25.000Z,57.57
2019-04-28T16:18:55.570Z,57.93
2019-04-28T16:21:26.031Z,57.99
2019-04-28T16:23:56.484Z,58.37
2019-04-28T16:26:27.394Z,58.87
2019-04-28T16:28:58.228Z,58.70
2019-04-28T16:31:28.665Z,58.97
2019-04-28T16:33:59.803Z,58.02
2019-04-28T16:36:30.237Z,58.47
2019-04-28T16:39:00.701Z,58.15
2019-04-28T16:41:39.525Z,57.98
2019-04-28T16:44:18.552Z,56.31
2019-04-28T16:46:49.029Z,57.32
2019-04-28T16:49:20.190Z,58.09
2019-04-28T16:51:50.633Z,57.73
2019-04-28T16:54:21.461Z,58.77
2019-04-28T16:57:09.022Z,58.57
2019-04-28T16:59:58.857Z,58.75
2019-04-28T17:02:39.374Z,58.06
2019-04-28T17:05:10.662Z,58.24
2019-04-28T17:07:52.412Z,58.70
2019-04-28T17:10:14.445Z,59.92
2019-04-28T17:12:47.201Z,60.53
2019-04-28T17:15:18.009Z,60.54
2019-04-28T17:17:48.859Z,59.79
2019-04-28T17:20:19.992Z,60.57
2019-04-28T17:22:50.896Z,60.52
2019-04-28T17:25:23.926Z,60.97
2019-04-28T17:27:54.423Z,61.20
2019-04-28T17:30:25.909Z,62.14
2019-04-28T17:32:56.383Z,62.77
2019-04-28T17:35:26.920Z,63.70
2019-04-28T17:38:06.785Z,62.98
2019-04-28T17:40:33.269Z,62.63
2019-04-28T17:43:04.311Z,62.90
2019-04-28T17:45:35.136Z,63.54
2019-04-28T17:48:14.870Z,63.74
2019-04-28T17:50:49.202Z,63.86
2019-04-28T17:53:19.687Z,63.50
2019-04-28T17:55:50.166Z,63.92
2019-04-28T17:58:21.002Z,64.35
2019-04-28T18:01:16.214Z,64.34
2019-04-28T18:04:08.426Z,64.86
2019-04-28T18:06:41.897Z,64.99
2019-04-28T18:09:13.602Z,65.40
2019-04-28T18:11:44.044Z,65.55
2019-04-28T18:14:21.997Z,65.69
2019-04-28T18:17:11.396Z,65.70
2019-04-28T18:19:42.263Z,65.97
2019-04-28T18:22:12.693Z,65.87
2019-04-28T18:24:43.137Z,66.12
2019-04-28T18:27:14.634Z,66.08
2019-04-28T18:29:45.142Z,66.73
2019-04-28T18:32:54.773Z,66.80
2019-04-28T18:35:44.488Z,66.04
2019-04-28T18:38:34.869Z,66.43
2019-04-28T18:41:07.376Z,66.08
2019-04-28T18:43:57.862Z,66.56
2019-04-28T18:46:30.101Z,66.51
2019-04-28T18:49:00.929Z,66.58
2019-04-28T18:51:31.423Z,66.37
2019-04-28T18:54:02.284Z,66.61
2019-04-28T18:56:33.873Z,67.01
2019-04-28T18:59:04.935Z,66.63
2019-04-28T19:02:03.561Z,66.43
2019-04-28T19:04:35.232Z,66.53
2019-04-28T19:07:08.648Z,66.63
2019-04-28T19:09:52.163Z,67.38
2019-04-28T19:12:43.961Z,68.02
2019-04-28T19:15:37.115Z,67.79
2019-04-28T19:18:16.852Z,69.32
2019-04-28T19:20:47.687Z,69.85
2019-04-28T19:23:21.309Z,70.50
2019-04-28T19:25:55.157Z,70.26
2019-04-28T19:28:26.126Z,71.36
2019-04-28T19:30:58.103Z,71.69
2019-04-28T19:33:29.489Z,71.98
2019-04-28T19:36:00.284Z,72.91
2019-04-28T19:38:30.757Z,72.23
2019-04-28T19:41:01.579Z,72.24
2019-04-28T19:43:32.034Z,72.28
2019-04-28T19:46:05.834Z,72.17
2019-04-28T19:48:36.635Z,72.50
2019-04-28T19:51:07.078Z,73.86
2019-04-28T19:53:42.678Z,73.17
2019-04-28T19:56:20.620Z,73.24
2019-04-28T19:59:00.177Z,73.09
2019-04-28T20:01:32.219Z,73.44
2019-04-28T20:04:02.650Z,73.86
2019-04-28T20:06:34.751Z,73.73
2019-04-28T20:09:06.674Z,73.88
2019-04-28T20:11:37.872Z,74.17
2019-04-28T20:14:09.240Z,73.97
2019-04-28T20:16:40.313Z,74.19
2019-04-28T20:19:10.746Z,74.22
2019-04-28T20:21:41.252Z,74.55
2019-04-28T20:24:11.701Z,74.46
2019-04-28T20:26:42.558Z,74.55
2019-04-28T20:29:13.393Z,74.86
2019-04-28T20:31:43.841Z,75.22
2019-04-28T20:34:14.321Z,75.47
2019-04-28T20:36:54.164Z,75.23
2019-04-28T20:39:29.340Z,75.81
2019-04-28T20:42:17.800Z,75.35
2019-04-28T20:44:49.544Z,75.41
2019-04-28T20:47:20.995Z,75.80
2019-04-28T20:49:51.829Z,75.58
2019-04-28T20:52:22.672Z,75.37
2019-04-28T20:54:53.545Z,75.93
2019-04-28T20:57:24.065Z,75.71
2019-04-28T20:59:54.564Z,75.96
2019-04-28T21:02:25.313Z,75.98
2019-04-28T21:04:55.814Z,75.81
2019-04-28T21:07:26.581Z,76.13
2019-04-28T21:09:57.045Z,76.27
2019-04-28T21:12:27.848Z,76.08
2019-04-28T21:14:58.327Z,76.22
2019-04-28T21:17:29.184Z,76.20
2019-04-28T21:20:00.057Z,76.32
2019-04-28T21:22:30.505Z,76.45
2019-04-28T21:25:01.262Z,76.86
2019-04-28T21:27:31.718Z,76.72
2019-04-28T21:30:02.238Z,76.69
2019-04-28T21:32:32.705Z,76.99
2019-04-28T21:35:03.192Z,76.87
2019-04-28T21:37:34.946Z,76.73
2019-04-28T21:40:07.423Z,77.06
2019-04-28T21:42:55.831Z,77.22
2019-04-28T21:45:43.870Z,77.29
2019-04-28T21:48:32.092Z,76.75
2019-04-28T21:51:02.561Z,78.77
2019-04-28T21:53:33.705Z,78.03
2019-04-28T21:56:04.133Z,77.85
2019-04-28T21:58:34.619Z,78.04
2019-04-28T22:01:05.956Z,78.57
2019-04-28T22:03:36.390Z,78.37
2019-04-28T22:06:06.898Z,78.82
2019-04-28T22:08:37.420Z,78.66
2019-04-28T22:11:07.858Z,78.29
2019-04-28T22:13:38.336Z,78.45
2019-04-28T22:16:09.062Z,78.78
2019-04-28T22:18:40.216Z,78.62
2019-04-28T22:21:10.689Z,78.84
2019-04-28T22:24:08.987Z,78.55
2019-04-28T22:26:50.231Z,78.91
2019-04-28T22:29:21.029Z,79.54
2019-04-28T22:31:51.460Z,79.48
2019-04-28T22:34:22.297Z,79.90
2019-04-28T22:36:52.725Z,80.25
2019-04-28T22:39:23.566Z,80.10
2019-04-28T22:41:54.183Z,79.60
2019-04-28T22:44:24.618Z,79.42
2019-04-28T22:46:55.060Z,79.47
2019-04-28T22:49:26.005Z,79.58
2019-04-28T22:51:56.432Z,79.91
2019-04-28T22:54:42.345Z,80.16
2019-04-28T22:57:37.970Z,80.03
2019-04-28T23:00:30.124Z,81.38
2019-04-28T23:03:00.643Z,82.78
2019-04-28T23:05:31.556Z,81.13
2019-04-28T23:08:02.057Z,80.72
2019-04-28T23:10:32.487Z,80.53
2019-04-28T23:13:02.912Z,80.21
2019-04-28T23:15:33.396Z,80.23
2019-04-28T23:18:03.833Z,81.43
2019-04-28T23:20:36.409Z,80.92
2019-04-28T23:23:07.903Z,80.38
2019-04-28T23:25:38.333Z,80.28
2019-04-28T23:28:08.760Z,80.50
2019-04-28T23:30:42.976Z,80.49
2019-04-28T23:33:13.445Z,80.45
2019-04-28T23:35:44.252Z,80.71
2019-04-28T23:38:14.734Z,80.73
2019-04-28T23:40:54.072Z,81.21
2019-04-28T23:43:24.577Z,80.90
2019-04-28T23:45:55.281Z,81.11
2019-04-28T23:48:25.734Z,80.97
2019-04-28T23:51:15.138Z,81.11
2019-04-28T23:54:01.176Z,81.08
2019-04-28T23:56:31.670Z,81.38
2019-04-28T23:59:02.464Z,81.45
